INDIA METEOROLOGICAL DEPARTMENT, R.M.C. NEW DELHI
Dated:21 - 8 - 2017
METARS


Ahmedabad  
VAAH 211500Z 18003KT 4000 HZ SCT020 BKN080 31/27 Q0999 NOSIG=
Amritsar   
VIAR 211500Z 00000KT 5000 BR FEW035 SCT100 29/29 Q1001 NOSIG=
Aurangabad 
VAAU 211500Z 25004KT 3000 -DZ SCT020 SCT025 BKN100 22/22 Q1004 NOSIG=
Bangalore  
VOBL 211530Z 23007KT 6000 SCT012 SCT080 23/22 Q1010 NOSIG=
Baroda     
VABO 211500Z 18005KT 5000 HZ SCT020 BKN080 28/25 Q0999 NOSIG=
Bhopal     
VABP 211500Z 16006KT 6000 SCT020 FEW030CB SCT100 27/24 Q1003 TEMPO 4000 -TSRA=
Bhubaneswar
VEBS 211530Z 17006KT 5000 HZ SCT020 29/26 Q1003 NOSIG=
Chennai    
VOMM 211530Z 21008KT 5000 BR SCT020 SCT100 30/26 Q1004 NOSIG=
Coimbatore 
VOCB 211530Z 22010KT 6000 FEW015 SCT080 25/22 Q1008 NOSIG=
Colombo    
VCBI 211510Z 23009KT 9999 FEW018 28/23 Q1008 NOSIG=
Delhi      
VIDP 211530Z 10006KT 3500 HZ FEW030 SCT100 32/26 Q1002 NOSIG=
Dehradun   
VIDN 211430Z 00000KT 2000 HZ SCT020 27/26 Q1003 =
Gauhati    
VEGT 211500Z 27003KT 4000 BR FEW020 FEW025CB SCT100 32/27 Q1002 NOSIG=
Gaya       
VEGY 211500Z 02002KT 3000 BR SCT018 BKN100 30/27 Q1001 NOSIG=
Goa        
VOGO 211430Z 25006KT 6000 SCT014 FEW022TCU BKN080 29/25 Q1003 NOSIG=
Hyderabad  
VOHS 211530Z 00000KT 6000 FEW015 BKN100 26/23 Q1006 NOSIG=
Indore     
VAID 211500Z 16004KT 5000 HZ FEW020 SCT025 FEW030CB 26/24 Q1003 NOSIG=
Jabalpur   
VAJB 211500Z 18003KT 6000 SCT020 28/23 Q1003=
Jaipur     
VIJP 211500Z 11006KT 4000 HZ SCT030 SCT090 31/24 Q1002 NOSIG=
Kochi      
VOCI 211500Z 00000KT 4000 HZ SCT015 SCT080 27/24 Q1007 NOSIG=
Kolkata    
VECC 211530Z 23008KT 3200 HZ SCT020 SCT100 29/26 Q1003 NOSIG=
Kozhikode  
VOCL 211530Z 00000KT 5000 DZ FEW006 SCT012 OVC080 25/24 Q1007 NOSIG=
Lucknow    
VILK 211430Z 10004KT 3000 HZ SCT020 BKN100 31/27 Q1000 NOSIG=
Madurai    
VOMD 211530Z 27011KT 6000 FEW018 FEW025CB BKN090 28/23 Q1006 NOSIG=
Mumbai     
VABB 211500Z 18008KT 2500 VCSH FEW012 SCT018 FEW025TCU OVC080 26/24 Q1002 TEMPO 1500 RA=
Nagpur     
VANP 211500Z 00000KT 2000 HZ SCT010 SCT015 BKN080 25/24 Q1004 NOSIG=
Patna      
VEPT 211530Z 00000KT 3000 HZ FEW020 SCT100 30/26 Q1001 NOSIG=
Ranchi     
VERC 211500Z 00000KT 4000 HZ SCT100 27/23 Q1006 NOSIG=
Trichy     
VOTR 211530Z 27003KT 6000 SCT016 SCT100 30/24 Q1004 NOSIG=
Trivandrum 
VOTV 211530Z 29005KT 4000 HZ SCT015 SCT080 26/22 Q1008 NOSIG=
Udaipur    
VAUD 211500Z 04006KT 3000 TSRA SCT025 SCT030 FEW035CB 28/26 Q1002 TEMPO 20 00 TSRA=
Varanasi   
VEBN 211500Z 12004KT 5000 HZ FEW100 31/25 Q1001 NOSIG=
Vizag      
VOVZ 211500Z 21004KT 5000 BR FEW018 SCT090 29/26 Q1002 NOSIG =
Male       
VRMM 211500Z 28011KT 9999 SCT017TCU 28/23 Q1008 NOSIG=
Gan        
VRMG 211500Z 17003KT 9999 FEW018 BKN270 28/25 Q1008 NOSIG=
Kathmandu  
VNKT 211520Z VRB02KT 7000 FEW010 SCT030 BKN100 23/21 Q1012 NOSIG=
Dhaka      
VGHS 211500Z 00000KT 4000 HZ SCT015 BKN100 29/25 Q1003 NOSIG=
Colombo    
VCBI 211510Z 23009KT 9999 FEW018 28/23 Q1008 NOSIG=
Karachi    
OPKC 211455Z 24010KT 4000 VCTS FEW025CB SCT030 BKN100 30/25 Q0998 TEMPO 2000T TSRA FEW025CB=
Lahore     
OPLA 211455Z 14008KT 5000 FU SCT100 31/24 Q1001 A29.56 NOSIG=
Gwalior    
VIGR 211500Z 00000KT 4000 HZ SCT100 30/25 Q1001=
Pune       
VAPO 211430Z 28005KT 6000 SCT025 BKN090 22/20 Q1005 TEMPO 5000 -RA=